Time;durP1;ratioP1;P1;durP2;ratioP2;P2;SDS_P1;SDS_P2;PMS_P1;PMS_P2;Temp;Humidity;BMP_temperature;BMP_pressure;BME280_temperature;BME280_humidity;BME280_pressure;Samples;Min_cycle;Max_cycle;Signal;HPM_P1;HPM_P2
2023/07/28 00:01:03;;;;;;;0.63;0.33;;;18.00;99.90;;;;;;5095449;28;20040;-76
2023/07/28 00:03:28;;;;;;;0.57;0.57;;;18.00;99.90;;;;;;5095422;28;20428;-77
2023/07/28 00:05:54;;;;;;;0.70;0.70;;;17.90;99.90;;;;;;5096540;28;20353;-77
2023/07/28 00:08:19;;;;;;;0.80;0.60;;;17.90;99.90;;;;;;5096472;28;20105;-76
2023/07/28 00:10:45;;;;;;;1.00;0.50;;;18.00;99.90;;;;;;5096451;28;20097;-77
2023/07/28 00:13:10;;;;;;;0.30;0.30;;;17.90;99.90;;;;;;5096325;28;20165;-77
2023/07/28 00:15:36;;;;;;;0.47;0.37;;;17.90;99.90;;;;;;5096501;28;20051;-76
2023/07/28 00:18:02;;;;;;;0.73;0.60;;;17.90;99.90;;;;;;5096519;28;20491;-76
2023/07/28 00:20:28;;;;;;;0.87;0.63;;;17.90;99.90;;;;;;5095253;28;20044;-76
2023/07/28 00:22:53;;;;;;;0.50;0.50;;;18.00;99.90;;;;;;5096470;28;20109;-76
2023/07/28 00:25:19;;;;;;;0.63;0.63;;;17.90;99.90;;;;;;5096472;28;20040;-75
2023/07/28 00:27:45;;;;;;;0.50;0.50;;;17.90;99.90;;;;;;5097227;28;20048;-75
2023/07/28 00:30:12;;;;;;;0.30;0.30;;;17.90;99.90;;;;;;5096499;28;20110;-75
2023/07/28 00:32:37;;;;;;;0.60;0.60;;;18.00;99.90;;;;;;5096269;28;20090;-75
2023/07/28 00:35:03;;;;;;;0.40;0.40;;;17.90;99.90;;;;;;5096326;28;20390;-76
2023/07/28 00:37:29;;;;;;;0.52;0.50;;;18.00;99.90;;;;;;5095777;28;20127;-76
2023/07/28 00:39:55;;;;;;;0.63;0.63;;;17.90;99.90;;;;;;5095874;28;20127;-75
2023/07/28 00:42:20;;;;;;;0.40;0.40;;;18.00;99.90;;;;;;5096264;28;20075;-75
2023/07/28 00:44:46;;;;;;;0.40;0.40;;;17.90;99.90;;;;;;5096134;28;20488;-75
2023/07/28 00:47:12;;;;;;;2.10;0.87;;;17.90;99.90;;;;;;5095838;28;20040;-76
2023/07/28 00:49:39;;;;;;;0.50;0.50;;;17.90;99.90;;;;;;5095694;28;20488;-76
2023/07/28 00:52:07;;;;;;;0.45;0.45;;;17.90;99.90;;;;;;5095697;28;20036;-76
2023/07/28 00:54:33;;;;;;;1.52;0.82;;;17.90;99.90;;;;;;5095494;28;20032;-76
2023/07/28 00:57:00;;;;;;;0.50;0.50;;;17.90;99.90;;;;;;5095918;28;20079;-77
2023/07/28 00:59:26;;;;;;;0.40;0.40;;;17.90;99.90;;;;;;5095440;28;20472;-76
2023/07/28 01:01:52;;;;;;;0.40;0.40;;;17.90;99.90;;;;;;5095450;28;20114;-75
2023/07/28 01:04:18;;;;;;;0.43;0.43;;;18.00;99.90;;;;;;5095082;28;20144;-77
2023/07/28 01:06:57;;;;;;;0.47;0.47;;;17.90;99.90;;;;;;5095553;28;20078;-77
2023/07/28 01:09:29;;;;;;;0.50;0.50;;;17.90;99.90;;;;;;5095373;28;20101;-75
2023/07/28 01:11:58;;;;;;;0.82;0.70;;;17.90;99.90;;;;;;5095331;28;20092;-75
2023/07/28 01:14:25;;;;;;;0.88;0.88;;;17.90;99.90;;;;;;5095142;28;20036;-77
2023/07/28 01:16:51;;;;;;;0.47;0.47;;;17.90;99.90;;;;;;5094824;28;20044;-75
2023/07/28 01:19:18;;;;;;;0.63;0.60;;;17.90;99.90;;;;;;5095166;28;20063;-75
2023/07/28 01:21:48;;;;;;;0.70;0.70;;;17.90;99.90;;;;;;5094787;28;20610;-74
2023/07/28 01:24:27;;;;;;;1.48;0.68;;;17.90;99.90;;;;;;5095389;28;20054;-77
2023/07/28 01:26:53;;;;;;;0.80;0.63;;;17.90;99.90;;;;;;5095310;28;20383;-76
2023/07/28 01:29:19;;;;;;;0.50;0.50;;;17.90;99.90;;;;;;5094974;28;20482;-77
2023/07/28 01:31:48;;;;;;;;;;;17.90;99.90;;;;;;5095285;28;20040;-77
2023/07/28 01:34:14;;;;;;;1.27;0.50;;;17.90;99.90;;;;;;5094800;28;19923;-75
2023/07/28 01:36:39;;;;;;;0.63;0.43;;;17.90;99.90;;;;;;5094885;28;20032;-77
2023/07/28 01:39:05;;;;;;;0.90;0.67;;;17.90;99.90;;;;;;5094982;28;20040;-75
2023/07/28 01:41:31;;;;;;;0.40;0.40;;;17.90;99.90;;;;;;5094816;28;20032;-74
2023/07/28 01:43:57;;;;;;;0.63;0.63;;;17.90;99.90;;;;;;5094951;28;20040;-75
2023/07/28 01:46:23;;;;;;;0.50;0.37;;;17.90;99.90;;;;;;5094817;28;20050;-76
2023/07/28 01:48:48;;;;;;;0.83;0.63;;;17.90;99.90;;;;;;5094964;28;20112;-77
2023/07/28 01:51:14;;;;;;;0.80;0.70;;;17.90;99.90;;;;;;5094661;28;20036;-77
2023/07/28 01:53:39;;;;;;;0.73;0.73;;;17.90;99.90;;;;;;5094212;28;20043;-76
2023/07/28 01:56:05;;;;;;;0.50;0.50;;;17.90;99.90;;;;;;5094497;28;20044;-76
2023/07/28 01:58:31;;;;;;;0.80;0.80;;;17.90;99.90;;;;;;5094639;28;20036;-77
2023/07/28 02:00:56;;;;;;;0.60;0.60;;;17.90;99.90;;;;;;5094477;28;20546;-75
2023/07/28 02:03:22;;;;;;;0.57;0.57;;;17.90;99.90;;;;;;5094366;28;20042;-76
2023/07/28 02:05:48;;;;;;;0.43;0.40;;;17.90;99.90;;;;;;5094323;28;20044;-75
2023/07/28 02:08:13;;;;;;;0.40;0.40;;;17.90;99.90;;;;;;5094293;28;20189;-75
2023/07/28 02:10:39;;;;;;;0.60;0.60;;;17.90;99.90;;;;;;5094003;28;20048;-76
2023/07/28 02:13:05;;;;;;;0.73;0.60;;;17.80;99.90;;;;;;5094150;28;20050;-76
2023/07/28 02:15:30;;;;;;;0.43;0.43;;;17.90;99.90;;;;;;5093308;28;20032;-75
2023/07/28 02:17:56;;;;;;;2.17;0.67;;;17.80;99.90;;;;;;5094157;28;20052;-76
2023/07/28 02:20:22;;;;;;;0.73;0.70;;;17.90;99.90;;;;;;5094589;28;20105;-76
2023/07/28 02:22:47;;;;;;;1.07;0.73;;;17.80;99.90;;;;;;5094063;28;20123;-75
2023/07/28 02:25:13;;;;;;;0.50;0.50;;;17.80;99.90;;;;;;5093928;28;20097;-75
2023/07/28 02:27:39;;;;;;;0.47;0.47;;;17.90;99.90;;;;;;5094179;28;20036;-76
2023/07/28 02:30:05;;;;;;;0.73;0.50;;;17.90;99.90;;;;;;5094004;28;20086;-77
2023/07/28 02:32:31;;;;;;;;;;;17.90;99.90;;;;;;5094295;28;20093;-76
2023/07/28 02:34:57;;;;;;;0.30;0.30;;;17.90;99.90;;;;;;5093896;28;19923;-76
2023/07/28 02:37:25;;;;;;;1.03;0.63;;;17.90;99.90;;;;;;5093899;28;20040;-75
2023/07/28 02:39:50;;;;;;;0.65;0.55;;;17.90;99.90;;;;;;5093858;28;20127;-75
2023/07/28 02:42:16;;;;;;;0.50;0.50;;;17.90;99.90;;;;;;5093878;28;20130;-77
2023/07/28 02:44:42;;;;;;;0.63;0.63;;;17.90;99.90;;;;;;5093747;28;20036;-77
2023/07/28 02:47:07;;;;;;;0.40;0.40;;;17.90;99.90;;;;;;5093805;28;20054;-77
2023/07/28 02:49:33;;;;;;;1.07;0.50;;;17.90;99.90;;;;;;5093836;28;20050;-76
2023/07/28 02:51:59;;;;;;;0.60;0.50;;;17.90;99.90;;;;;;5094205;28;20043;-77
2023/07/28 02:54:25;;;;;;;0.30;0.30;;;17.90;99.90;;;;;;5093945;28;20036;-77
2023/07/28 02:56:51;;;;;;;0.33;0.33;;;17.90;99.90;;;;;;5093761;28;20111;-77
2023/07/28 02:59:17;;;;;;;0.90;0.85;;;17.90;99.90;;;;;;5093718;28;20128;-76
2023/07/28 03:01:43;;;;;;;0.28;0.28;;;17.90;99.90;;;;;;5093721;28;20119;-76
2023/07/28 03:04:08;;;;;;;0.30;0.30;;;17.90;99.90;;;;;;5094668;28;20123;-76
2023/07/28 03:06:34;;;;;;;0.87;0.50;;;17.90;99.90;;;;;;5093595;28;20043;-76
2023/07/28 03:08:59;;;;;;;0.50;0.50;;;17.90;99.90;;;;;;5093614;28;20472;-76
2023/07/28 03:11:25;;;;;;;0.87;0.60;;;17.90;99.90;;;;;;5093599;28;20075;-76
2023/07/28 03:13:51;;;;;;;0.47;0.47;;;17.90;99.90;;;;;;5093521;28;20452;-77
2023/07/28 03:16:16;;;;;;;0.50;0.50;;;17.90;99.90;;;;;;5093596;28;20044;-75
2023/07/28 03:18:42;;;;;;;0.50;0.50;;;17.90;99.90;;;;;;5092185;28;20047;-77
2023/07/28 03:21:09;;;;;;;0.50;0.50;;;17.90;99.90;;;;;;5093514;28;20048;-77
2023/07/28 03:23:35;;;;;;;0.50;0.30;;;17.90;99.90;;;;;;5093299;28;20479;-76
2023/07/28 03:26:01;;;;;;;0.37;0.37;;;17.90;99.90;;;;;;5094741;28;20043;-76
2023/07/28 03:28:26;;;;;;;1.20;0.50;;;17.90;99.90;;;;;;5097571;28;20108;-76
2023/07/28 03:30:52;;;;;;;0.33;0.33;;;17.90;99.90;;;;;;5097251;28;20081;-77
2023/07/28 03:33:17;;;;;;;0.60;0.60;;;17.90;99.90;;;;;;5097068;28;20040;-77
2023/07/28 03:35:43;;;;;;;0.60;0.60;;;17.90;99.90;;;;;;5097200;28;20173;-76
2023/07/28 03:38:09;;;;;;;0.60;0.50;;;17.90;99.90;;;;;;5097495;28;20122;-76
2023/07/28 03:40:34;;;;;;;0.50;0.50;;;17.90;99.90;;;;;;5097649;28;20125;-77
2023/07/28 03:43:00;;;;;;;0.93;0.60;;;17.90;99.90;;;;;;5097270;28;20388;-77
2023/07/28 03:45:26;;;;;;;0.70;0.40;;;17.90;99.90;;;;;;5096322;28;20036;-75
2023/07/28 03:47:51;;;;;;;0.40;0.40;;;17.90;99.90;;;;;;5097637;28;20040;-77
2023/07/28 03:50:17;;;;;;;0.40;0.40;;;17.90;99.90;;;;;;5097579;28;20036;-75
2023/07/28 03:52:43;;;;;;;0.40;0.40;;;17.90;99.90;;;;;;5097623;28;20438;-76
2023/07/28 03:55:08;;;;;;;0.50;0.50;;;17.90;99.90;;;;;;5097294;28;20518;-77
2023/07/28 03:57:34;;;;;;;0.50;0.50;;;17.90;99.90;;;;;;5096537;28;20036;-77
2023/07/28 04:00:00;;;;;;;0.47;0.47;;;17.90;99.90;;;;;;5096850;28;20032;-76
2023/07/28 04:02:25;;;;;;;0.63;0.63;;;17.90;99.90;;;;;;5096700;28;20581;-76
2023/07/28 04:04:55;;;;;;;0.37;0.37;;;17.90;99.90;;;;;;5096622;28;20089;-77
2023/07/28 04:07:20;;;;;;;0.30;0.30;;;17.90;99.90;;;;;;5096977;28;20098;-77
2023/07/28 04:09:46;;;;;;;0.47;0.47;;;17.90;99.90;;;;;;5096529;28;20075;-75
2023/07/28 04:12:12;;;;;;;0.57;0.57;;;17.90;99.90;;;;;;5096440;28;20418;-76
2023/07/28 04:14:37;;;;;;;0.80;0.80;;;17.90;99.90;;;;;;5096268;28;20032;-76
2023/07/28 04:17:03;;;;;;;0.47;0.47;;;17.90;99.90;;;;;;5096293;28;20043;-76
2023/07/28 04:19:29;;;;;;;0.40;0.40;;;17.90;99.90;;;;;;5096304;28;20131;-77
2023/07/28 04:21:56;;;;;;;0.87;0.87;;;17.90;99.90;;;;;;5096524;28;20036;-76
2023/07/28 04:24:22;;;;;;;;;;;18.00;99.90;;;;;;5095767;28;20044;-76
2023/07/28 04:26:50;;;;;;;0.73;0.40;;;17.90;99.90;;;;;;5096156;28;19923;-77
2023/07/28 04:29:16;;;;;;;0.60;0.60;;;17.90;99.90;;;;;;5096124;28;20047;-76
2023/07/28 04:31:42;;;;;;;0.47;0.47;;;17.90;99.90;;;;;;5096142;28;20047;-77
2023/07/28 04:34:07;;;;;;;0.30;0.30;;;17.90;99.90;;;;;;5096403;28;20036;-76
2023/07/28 04:36:33;;;;;;;0.60;0.60;;;17.90;99.90;;;;;;5096414;28;20044;-77
2023/07/28 04:38:59;;;;;;;0.30;0.30;;;18.00;99.90;;;;;;5095270;28;20044;-75
2023/07/28 04:41:24;;;;;;;0.40;0.40;;;17.90;99.90;;;;;;5096086;28;20036;-76
2023/07/28 04:43:50;;;;;;;0.47;0.47;;;17.90;99.90;;;;;;5096089;28;20028;-77
2023/07/28 04:46:16;;;;;;;0.65;0.60;;;17.90;99.90;;;;;;5095693;28;20044;-74
2023/07/28 04:48:42;;;;;;;0.40;0.40;;;17.90;99.90;;;;;;5095805;28;20093;-74
2023/07/28 04:51:07;;;;;;;0.47;0.47;;;17.90;99.90;;;;;;5095953;28;20040;-74
2023/07/28 04:53:33;;;;;;;0.37;0.37;;;18.00;99.90;;;;;;5095446;28;20036;-75
2023/07/28 04:55:58;;;;;;;0.30;0.30;;;18.00;99.90;;;;;;5095598;28;20032;-75
2023/07/28 04:58:24;;;;;;;0.33;0.33;;;18.00;99.90;;;;;;5094655;28;20035;-74
2023/07/28 05:00:50;;;;;;;0.40;0.40;;;18.00;99.90;;;;;;5095480;28;20028;-74
2023/07/28 05:03:15;;;;;;;0.53;0.53;;;18.00;99.90;;;;;;5095767;28;20067;-75
2023/07/28 05:05:45;;;;;;;0.53;0.53;;;18.00;99.90;;;;;;5095379;28;20081;-75
2023/07/28 05:08:10;;;;;;;1.35;0.60;;;18.00;99.90;;;;;;5095434;28;20028;-74
2023/07/28 05:10:36;;;;;;;0.40;0.40;;;18.10;99.90;;;;;;5095372;28;20043;-74
2023/07/28 05:13:04;;;;;;;0.47;0.47;;;18.00;99.90;;;;;;5095449;28;20039;-75
2023/07/28 05:15:30;;;;;;;1.10;0.50;;;18.00;99.90;;;;;;5095239;28;20047;-75
2023/07/28 05:17:55;;;;;;;1.00;0.90;;;18.00;99.90;;;;;;5096247;28;20036;-74
2023/07/28 05:20:21;;;;;;;0.77;0.77;;;18.00;99.90;;;;;;5095546;28;20055;-74
2023/07/28 05:22:47;;;;;;;0.40;0.40;;;18.00;99.90;;;;;;5095076;28;20176;-75
2023/07/28 05:25:12;;;;;;;0.40;0.40;;;18.00;99.90;;;;;;5095065;28;20032;-74
2023/07/28 05:27:38;;;;;;;0.73;0.73;;;18.00;99.90;;;;;;5095114;28;20040;-74
2023/07/28 05:30:04;;;;;;;0.77;0.73;;;18.10;99.90;;;;;;5094052;28;20047;-74
2023/07/28 05:32:30;;;;;;;1.45;1.00;;;18.00;99.90;;;;;;5094756;28;20032;-74
2023/07/28 05:34:55;;;;;;;0.50;0.50;;;18.00;99.90;;;;;;5094825;28;20096;-74
2023/07/28 05:37:21;;;;;;;0.50;0.50;;;18.00;99.90;;;;;;5094798;28;20441;-75
2023/07/28 05:39:46;;;;;;;0.70;0.60;;;18.00;99.90;;;;;;5095078;28;20376;-77
2023/07/28 05:42:12;;;;;;;0.50;0.50;;;18.10;99.90;;;;;;5094751;28;20119;-75
2023/07/28 05:44:37;;;;;;;1.17;0.50;;;18.10;99.90;;;;;;5094692;28;20414;-77
2023/07/28 05:47:04;;;;;;;0.67;0.50;;;18.10;99.90;;;;;;5094296;28;20047;-78
2023/07/28 05:49:30;;;;;;;1.58;0.73;;;18.10;99.90;;;;;;5093853;28;20113;-76
2023/07/28 05:51:56;;;;;;;0.43;0.43;;;18.10;99.90;;;;;;5094453;28;20435;-76
2023/07/28 05:54:21;;;;;;;0.77;0.63;;;18.10;99.90;;;;;;5094531;28;20516;-75
2023/07/28 05:56:47;;;;;;;4.20;0.90;;;18.10;99.90;;;;;;5094674;28;20085;-77
2023/07/28 05:59:13;;;;;;;0.47;0.47;;;18.10;99.90;;;;;;5094632;28;20132;-77
2023/07/28 06:01:38;;;;;;;0.70;0.50;;;18.10;99.90;;;;;;5094520;28;20166;-76
2023/07/28 06:04:04;;;;;;;0.60;0.60;;;18.10;99.90;;;;;;5094529;28;20085;-78
2023/07/28 06:06:30;;;;;;;0.47;0.47;;;18.10;99.90;;;;;;5094431;28;20036;-75
2023/07/28 06:08:55;;;;;;;0.50;0.50;;;18.20;99.90;;;;;;5094621;28;20040;-74
2023/07/28 06:11:21;;;;;;;1.13;0.90;;;18.20;99.90;;;;;;5094380;28;20036;-76
2023/07/28 06:13:47;;;;;;;1.10;1.00;;;18.10;99.90;;;;;;5094635;28;20375;-75
2023/07/28 06:16:14;;;;;;;0.60;0.52;;;18.20;99.90;;;;;;5094029;28;20036;-73
2023/07/28 06:18:40;;;;;;;0.82;0.73;;;18.20;99.90;;;;;;5094275;28;20040;-74
2023/07/28 06:21:05;;;;;;;0.47;0.47;;;18.20;99.90;;;;;;5094529;28;20047;-74
2023/07/28 06:23:31;;;;;;;0.73;0.73;;;18.30;99.90;;;;;;5094360;28;20354;-74
2023/07/28 06:25:56;;;;;;;0.80;0.80;;;18.30;99.90;;;;;;5094041;28;20092;-74
2023/07/28 06:28:22;;;;;;;0.77;0.73;;;18.30;99.90;;;;;;5093972;28;20460;-74
2023/07/28 06:30:54;;;;;;;0.57;0.50;;;18.40;99.90;;;;;;5093945;28;20044;-74
2023/07/28 06:33:19;;;;;;;0.30;0.30;;;18.50;99.90;;;;;;5093892;28;20036;-74
2023/07/28 06:35:45;;;;;;;0.83;0.70;;;18.60;99.90;;;;;;5094340;28;20052;-74
2023/07/28 06:38:10;;;;;;;0.83;0.83;;;18.50;99.90;;;;;;5092754;28;20539;-75
2023/07/28 06:40:36;;;;;;;0.50;0.50;;;18.60;99.90;;;;;;5093891;28;20035;-77
2023/07/28 06:43:02;;;;;;;1.13;0.80;;;18.70;99.90;;;;;;5093764;28;20054;-73
2023/07/28 06:45:27;;;;;;;1.17;0.50;;;18.80;99.90;;;;;;5093822;28;20464;-75
2023/07/28 06:47:53;;;;;;;0.77;0.77;;;18.80;99.90;;;;;;5093686;28;20036;-73
2023/07/28 06:50:19;;;;;;;0.80;0.60;;;18.90;99.90;;;;;;5094376;28;20105;-80
2023/07/28 06:52:46;;;;;;;0.50;0.40;;;19.10;99.90;;;;;;5094107;28;20039;-78
2023/07/28 06:55:12;;;;;;;0.55;0.47;;;19.00;99.90;;;;;;5093665;28;20482;-78
2023/07/28 06:57:37;;;;;;;0.50;0.50;;;19.10;99.90;;;;;;5093720;28;20122;-79
2023/07/28 07:00:03;;;;;;;0.43;0.43;;;19.20;99.90;;;;;;5093746;28;20357;-79
2023/07/28 07:02:29;;;;;;;0.40;0.40;;;19.20;99.90;;;;;;5097615;28;20040;-77
2023/07/28 07:04:55;;;;;;;0.50;0.40;;;19.30;99.90;;;;;;5098233;28;20071;-79
2023/07/28 07:07:20;;;;;;;0.87;0.77;;;19.30;99.90;;;;;;5097743;28;20036;-78
2023/07/28 07:09:46;;;;;;;0.80;0.60;;;19.30;99.90;;;;;;5097722;28;20036;-76
2023/07/28 07:12:12;;;;;;;0.57;0.57;;;19.30;99.90;;;;;;5097669;28;20123;-77
2023/07/28 07:14:37;;;;;;;0.50;0.50;;;19.40;99.90;;;;;;5097531;28;20345;-77
2023/07/28 07:17:03;;;;;;;0.40;0.40;;;19.40;99.90;;;;;;5097584;28;20036;-77
2023/07/28 07:19:29;;;;;;;0.87;0.80;;;19.40;99.90;;;;;;5097813;28;20394;-78
2023/07/28 07:21:55;;;;;;;1.50;0.60;;;19.30;99.90;;;;;;5097499;28;20133;-73
2023/07/28 07:24:21;;;;;;;0.70;0.70;;;19.30;99.90;;;;;;5097357;28;20033;-73
2023/07/28 07:26:47;;;;;;;0.60;0.57;;;19.30;99.90;;;;;;5097283;28;20051;-72
2023/07/28 07:29:12;;;;;;;0.67;0.67;;;19.30;99.90;;;;;;5097344;28;20470;-74
2023/07/28 07:31:38;;;;;;;0.53;0.53;;;19.40;99.90;;;;;;5097226;28;20035;-74
2023/07/28 07:34:04;;;;;;;0.97;0.87;;;19.40;99.90;;;;;;5097271;28;20035;-74
2023/07/28 07:36:30;;;;;;;0.80;0.60;;;19.40;99.90;;;;;;5097360;28;20036;-73
2023/07/28 07:38:56;;;;;;;1.17;0.80;;;19.50;99.90;;;;;;5097096;28;20496;-73
2023/07/28 07:41:22;;;;;;;0.73;0.40;;;19.60;99.90;;;;;;5097148;28;20109;-74
2023/07/28 07:43:49;;;;;;;0.47;0.47;;;19.60;99.90;;;;;;5097004;28;20035;-74
2023/07/28 07:46:16;;;;;;;0.60;0.60;;;19.70;99.90;;;;;;5096863;28;20040;-73
2023/07/28 07:48:42;;;;;;;0.40;0.38;;;19.80;99.90;;;;;;5096927;28;20035;-73
2023/07/28 07:51:08;;;;;;;0.90;0.60;;;19.90;99.90;;;;;;5096750;28;20498;-73
2023/07/28 07:53:36;;;;;;;0.90;0.75;;;20.00;99.90;;;;;;5096927;28;20036;-73
2023/07/28 07:56:02;;;;;;;1.35;0.40;;;20.00;99.90;;;;;;5096489;28;20160;-73
2023/07/28 07:58:28;;;;;;;0.85;0.77;;;19.90;99.90;;;;;;5096755;28;20044;-72
2023/07/28 08:00:55;;;;;;;0.67;0.67;;;19.80;99.90;;;;;;5096717;28;20040;-72
2023/07/28 08:03:20;;;;;;;0.40;0.40;;;19.80;99.90;;;;;;5096401;28;20040;-74
2023/07/28 08:05:46;;;;;;;0.50;0.50;;;19.80;99.90;;;;;;5094745;28;20048;-75
2023/07/28 08:08:12;;;;;;;0.47;0.47;;;19.90;99.90;;;;;;5095525;28;20043;-75
2023/07/28 08:10:39;;;;;;;0.40;0.40;;;20.00;99.90;;;;;;5095326;28;20141;-75
2023/07/28 08:13:04;;;;;;;0.40;0.40;;;20.00;99.90;;;;;;5095188;28;20095;-81
2023/07/28 08:15:30;;;;;;;0.47;0.47;;;20.10;99.90;;;;;;5096341;28;20468;-74
2023/07/28 08:17:56;;;;;;;0.50;0.50;;;20.20;99.90;;;;;;5095927;28;20139;-74
2023/07/28 08:20:21;;;;;;;0.50;0.50;;;20.30;99.90;;;;;;5096388;28;20044;-74
2023/07/28 08:22:47;;;;;;;1.43;0.60;;;20.40;99.90;;;;;;5096182;28;20480;-75
2023/07/28 08:25:13;;;;;;;1.40;0.87;;;20.50;99.90;;;;;;5096281;28;20039;-74
2023/07/28 08:27:38;;;;;;;1.13;0.57;;;20.50;99.90;;;;;;5096062;28;20071;-74
2023/07/28 08:30:05;;;;;;;3.00;0.50;;;20.60;99.90;;;;;;5096091;28;20468;-74
2023/07/28 08:32:30;;;;;;;;;;;20.70;99.90;;;;;;5096544;28;20071;-75
2023/07/28 08:34:56;;;;;;;0.38;0.38;;;20.70;99.90;;;;;;5095960;28;20334;-74
2023/07/28 08:37:22;;;;;;;0.57;0.57;;;20.80;99.90;;;;;;5096009;28;20036;-75
2023/07/28 08:39:48;;;;;;;0.38;0.38;;;20.90;99.90;;;;;;5095938;28;20108;-75
2023/07/28 08:42:13;;;;;;;0.40;0.40;;;21.00;99.90;;;;;;5095655;28;20044;-74
2023/07/28 08:44:39;;;;;;;0.40;0.40;;;21.10;99.90;;;;;;5095801;28;20115;-75
2023/07/28 08:47:05;;;;;;;0.43;0.43;;;21.10;99.90;;;;;;5096264;28;20083;-75
2023/07/28 08:49:32;;;;;;;0.50;0.50;;;21.20;99.90;;;;;;5095780;28;20056;-74
2023/07/28 08:51:59;;;;;;;0.35;0.35;;;21.30;99.90;;;;;;5095566;28;20047;-76
2023/07/28 08:54:25;;;;;;;0.32;0.32;;;21.50;99.90;;;;;;5094266;28;20032;-75
2023/07/28 08:56:51;;;;;;;0.40;0.40;;;21.70;99.90;;;;;;5095263;28;20032;-75
2023/07/28 08:59:25;;;;;;;0.40;0.40;;;21.80;99.90;;;;;;5095440;28;20119;-76
2023/07/28 09:01:52;;;;;;;0.50;0.50;;;21.90;99.90;;;;;;5095388;28;20040;-75
2023/07/28 09:04:18;;;;;;;0.30;0.30;;;21.90;99.90;;;;;;5095773;28;20040;-76
2023/07/28 09:06:49;;;;;;;0.30;0.30;;;21.90;99.90;;;;;;5095740;28;20051;-76
2023/07/28 09:09:15;;;;;;;0.73;0.57;;;21.80;99.90;;;;;;5095384;28;20050;-75
2023/07/28 09:11:49;;;;;;;1.98;0.63;;;21.80;99.90;;;;;;5095289;28;20036;-76
2023/07/28 09:14:16;;;;;;;0.40;0.40;;;21.90;99.90;;;;;;5095676;28;20046;-78
2023/07/28 09:16:43;;;;;;;0.55;0.55;;;22.00;99.90;;;;;;5095179;28;20131;-76
2023/07/28 09:19:09;;;;;;;0.40;0.40;;;22.10;99.90;;;;;;5094998;28;20135;-77
2023/07/28 09:21:37;;;;;;;1.27;1.17;;;22.20;99.90;;;;;;5095176;28;20097;-79
2023/07/28 09:24:07;;;;;;;0.50;0.50;;;22.30;99.90;;;;;;5094856;28;20044;-75
2023/07/28 09:26:46;;;;;;;0.30;0.30;;;22.20;99.90;;;;;;5094915;28;20043;-75
2023/07/28 09:29:17;;;;;;;0.30;0.30;;;22.20;99.90;;;;;;5094952;28;20048;-74
2023/07/28 09:31:47;;;;;;;0.47;0.47;;;22.20;99.90;;;;;;5094887;28;20040;-73
2023/07/28 09:34:25;;;;;;;0.40;0.40;;;22.20;99.90;;;;;;5095083;28;20036;-73
2023/07/28 09:36:53;;;;;;;0.40;0.40;;;22.30;99.90;;;;;;5094785;28;20084;-73
2023/07/28 09:39:20;;;;;;;0.40;0.40;;;22.50;99.90;;;;;;5094485;28;20040;-75
2023/07/28 09:41:46;;;;;;;0.30;0.30;;;22.70;99.90;;;;;;5094785;28;20115;-80
2023/07/28 09:44:12;;;;;;;0.30;0.30;;;22.90;99.90;;;;;;5095083;28;20040;-83
2023/07/28 09:46:51;;;;;;;0.30;0.30;;;23.10;99.90;;;;;;5094626;28;20467;-76
2023/07/28 09:49:22;;;;;;;0.47;0.45;;;23.10;99.90;;;;;;5093927;28;20043;-76
2023/07/28 09:51:53;;;;;;;0.30;0.30;;;23.00;99.90;;;;;;5094040;28;20085;-75
2023/07/28 09:54:29;;;;;;;0.30;0.30;;;22.90;99.90;;;;;;5094790;28;20032;-75
2023/07/28 09:56:59;;;;;;;0.30;0.30;;;22.80;99.90;;;;;;5094754;28;20036;-76
2023/07/28 09:59:39;;;;;;;0.40;0.40;;;22.90;99.90;;;;;;5094625;28;20036;-76
2023/07/28 10:02:05;;;;;;;0.98;0.60;;;22.90;99.90;;;;;;5094421;28;20079;-76
2023/07/28 10:04:32;;;;;;;0.55;0.40;;;23.00;99.90;;;;;;5094530;28;20539;-76
2023/07/28 10:06:59;;;;;;;0.93;0.40;;;22.90;99.90;;;;;;5095067;28;20040;-76
2023/07/28 10:09:26;;;;;;;0.50;0.50;;;22.80;99.90;;;;;;5094250;28;20051;-77
2023/07/28 10:11:55;;;;;;;0.52;0.40;;;22.60;99.90;;;;;;5094264;28;20072;-77
2023/07/28 10:14:28;;;;;;;0.73;0.40;;;22.40;99.90;;;;;;5094212;28;20113;-76
2023/07/28 10:16:54;;;;;;;0.40;0.40;;;22.50;99.90;;;;;;5094913;28;20047;-76
2023/07/28 10:19:20;;;;;;;0.47;0.47;;;22.70;99.90;;;;;;5094440;28;20044;-76
2023/07/28 10:21:46;;;;;;;;;;;22.80;99.90;;;;;;5094544;28;20100;-76
2023/07/28 10:24:11;;;;;;;0.60;0.60;;;23.10;99.90;;;;;;5094061;28;19916;-76
2023/07/28 10:26:41;;;;;;;0.33;0.33;;;23.10;99.90;;;;;;5094161;28;20043;-76
2023/07/28 10:29:14;;;;;;;1.20;0.55;;;23.10;99.90;;;;;;5094248;28;20044;-76
2023/07/28 10:31:55;;;;;;;0.95;0.65;;;23.10;99.90;;;;;;5094231;28;20126;-75
2023/07/28 10:34:22;;;;;;;0.47;0.47;;;23.00;99.90;;;;;;5094196;28;20086;-76
2023/07/28 10:36:59;;;;;;;0.30;0.30;;;22.80;99.90;;;;;;5093121;28;20039;-77
2023/07/28 10:39:25;;;;;;;0.40;0.35;;;22.70;99.90;;;;;;5093946;28;20047;-75
2023/07/28 10:42:08;;;;;;;0.30;0.30;;;22.60;99.90;;;;;;5093822;28;20036;-76
2023/07/28 10:44:34;;;;;;;0.43;0.43;;;22.60;99.90;;;;;;5094209;28;20051;-76
2023/07/28 10:47:01;;;;;;;0.38;0.38;;;22.60;99.90;;;;;;5092625;28;20051;-76
2023/07/28 10:49:27;;;;;;;1.38;1.05;;;22.50;99.90;;;;;;5093691;28;20582;-76
2023/07/28 10:51:53;;;;;;;0.55;0.40;;;22.50;99.90;;;;;;5093746;28;20048;-76
2023/07/28 10:54:20;;;;;;;0.70;0.70;;;22.70;99.90;;;;;;5093597;28;20353;-76
2023/07/28 10:56:48;;;;;;;0.88;0.85;;;23.00;99.90;;;;;;5093733;28;20048;-76
2023/07/28 10:59:15;;;;;;;0.63;0.63;;;23.10;99.90;;;;;;5093575;28;20040;-76
2023/07/28 11:01:41;;;;;;;0.30;0.30;;;23.30;99.90;;;;;;5093944;28;20040;-76
2023/07/28 11:04:11;;;;;;;0.40;0.40;;;23.40;99.90;;;;;;5093646;28;20072;-76
2023/07/28 11:06:42;;;;;;;0.80;0.80;;;23.30;99.90;;;;;;5093541;28;20051;-76
2023/07/28 11:09:09;;;;;;;0.50;0.50;;;23.10;99.90;;;;;;5093619;28;20040;-77
2023/07/28 11:11:36;;;;;;;0.28;0.28;;;22.90;99.90;;;;;;5093955;28;20047;-77
2023/07/28 11:14:06;;;;;;;0.40;0.40;;;22.70;99.90;;;;;;5093625;28;20036;-76
2023/07/28 11:16:37;;;;;;;0.68;0.50;;;22.70;99.90;;;;;;5093354;28;20422;-76
2023/07/28 11:19:07;;;;;;;0.40;0.40;;;22.70;99.90;;;;;;5093820;28;20040;-76
2023/07/28 11:21:42;;;;;;;1.30;0.50;;;22.80;99.90;;;;;;5093777;28;20044;-76
2023/07/28 11:24:09;;;;;;;0.88;0.38;;;22.80;99.90;;;;;;5093747;28;20092;-76
2023/07/28 11:26:35;;;;;;;;;;;22.80;99.90;;;;;;5093835;28;20035;-76
2023/07/28 11:29:01;;;;;;;0.38;0.30;;;22.90;99.90;;;;;;5093498;28;20313;-76
2023/07/28 11:31:27;;;;;;;0.40;0.40;;;22.80;99.90;;;;;;5093412;28;20123;-76
2023/07/28 11:33:53;;;;;;;0.40;0.40;;;22.60;99.90;;;;;;5093330;28;20368;-75
2023/07/28 11:36:27;;;;;;;0.30;0.30;;;22.50;99.90;;;;;;5093809;28;20043;-75
2023/07/28 11:38:54;;;;;;;0.40;0.40;;;22.30;99.90;;;;;;5093204;28;20040;-75
2023/07/28 11:41:21;;;;;;;0.35;0.35;;;22.20;99.90;;;;;;5093318;28;20048;-75
2023/07/28 11:43:51;;;;;;;0.20;0.20;;;22.20;99.90;;;;;;5093276;28;20486;-76
2023/07/28 11:46:38;;;;;;;0.20;0.20;;;22.20;99.90;;;;;;5093407;28;20615;-75
2023/07/28 11:49:11;;;;;;;0.30;0.30;;;22.20;99.90;;;;;;5097073;28;20166;-75
2023/07/28 11:51:39;;;;;;;0.30;0.30;;;22.20;99.90;;;;;;5097101;28;20544;-75
2023/07/28 11:54:06;;;;;;;0.40;0.40;;;22.10;99.90;;;;;;5096810;28;20043;-76
2023/07/28 11:56:31;;;;;;;0.30;0.30;;;22.00;99.90;;;;;;5096803;28;20051;-74
2023/07/28 11:58:58;;;;;;;0.50;0.50;;;22.00;99.90;;;;;;5096857;28;20035;-75
2023/07/28 12:01:23;;;;;;;0.35;0.35;;;22.00;99.90;;;;;;5096458;28;20036;-74
2023/07/28 12:03:49;;;;;;;0.30;0.30;;;22.10;99.90;;;;;;5097070;28;20040;-75
2023/07/28 12:06:15;;;;;;;0.30;0.30;;;22.10;99.90;;;;;;5096688;28;20047;-75
2023/07/28 12:08:41;;;;;;;0.40;0.40;;;22.20;99.90;;;;;;5096528;28;20040;-75
2023/07/28 12:11:13;;;;;;;0.30;0.30;;;22.30;99.90;;;;;;5096709;28;20451;-76
2023/07/28 12:13:51;;;;;;;0.43;0.43;;;22.50;99.90;;;;;;5096337;28;20550;-75
2023/07/28 12:16:40;;;;;;;0.40;0.40;;;22.60;99.90;;;;;;5096375;28;20384;-74
2023/07/28 12:19:06;;;;;;;0.40;0.40;;;22.90;99.90;;;;;;5096187;28;20418;-75
2023/07/28 12:21:31;;;;;;;0.40;0.40;;;23.10;99.90;;;;;;5096208;28;20097;-75
2023/07/28 12:23:57;;;;;;;0.30;0.30;;;23.20;99.90;;;;;;5096260;28;20467;-75
2023/07/28 12:26:23;;;;;;;0.40;0.40;;;23.40;99.90;;;;;;5096125;28;20465;-75
2023/07/28 12:28:48;;;;;;;0.33;0.30;;;23.60;99.90;;;;;;5096236;28;20035;-75
2023/07/28 12:31:14;;;;;;;0.30;0.30;;;23.70;99.90;;;;;;5096513;28;20460;-75
2023/07/28 12:33:39;;;;;;;0.40;0.40;;;23.80;99.90;;;;;;5095940;28;20127;-76
2023/07/28 12:36:06;;;;;;;0.40;0.40;;;23.90;99.90;;;;;;5096007;28;20468;-75
2023/07/28 12:38:31;;;;;;;0.40;0.40;;;24.00;99.90;;;;;;5095989;28;20523;-76
2023/07/28 12:40:57;;;;;;;0.30;0.30;;;24.10;99.90;;;;;;5095845;28;20126;-75
2023/07/28 12:43:25;;;;;;;0.57;0.40;;;24.20;99.90;;;;;;5095613;28;20117;-75
2023/07/28 12:45:50;;;;;;;0.35;0.35;;;24.20;99.90;;;;;;5096110;28;20563;-75